createdAt,value
2023-04-06T00:02:54.532Z,3.31
2023-04-06T00:07:04.846Z,3.31
2023-04-06T00:11:41.838Z,3.30
2023-04-06T00:16:17.308Z,3.25
2023-04-06T00:20:51.908Z,3.16
2023-04-06T00:24:54.935Z,3.10
2023-04-06T00:28:59.662Z,3.04
2023-04-06T00:33:05.129Z,2.97
2023-04-06T00:37:08.350Z,2.92
2023-04-06T00:41:12.317Z,2.90
2023-04-06T00:45:15.824Z,2.87
2023-04-06T00:49:20.352Z,2.86
2023-04-06T00:53:23.296Z,2.86
2023-04-06T00:57:27.907Z,2.77
2023-04-06T01:01:33.408Z,2.68
2023-04-06T01:05:43.620Z,2.60
2023-04-06T01:09:55.494Z,2.58
2023-04-06T01:14:02.493Z,2.56
2023-04-06T01:18:18.149Z,2.53
2023-04-06T01:22:33.234Z,2.52
2023-04-06T01:26:40.810Z,2.50
2023-04-06T01:30:46.513Z,2.48
2023-04-06T01:35:06.138Z,2.48
2023-04-06T01:39:14.067Z,2.42
2023-04-06T01:43:17.568Z,2.41
2023-04-06T01:47:35.651Z,2.39
2023-04-06T01:51:39.514Z,2.38
2023-04-06T01:55:48.409Z,2.34
2023-04-06T02:00:07.773Z,2.31
2023-04-06T02:04:17.680Z,2.28
2023-04-06T02:08:23.420Z,2.18
2023-04-06T02:12:27.828Z,2.06
2023-04-06T02:16:31.526Z,1.98
2023-04-06T02:20:34.978Z,1.96
2023-04-06T02:24:37.945Z,1.94
2023-04-06T02:28:42.326Z,1.90
2023-04-06T02:32:45.548Z,1.89
2023-04-06T02:36:49.667Z,1.89
2023-04-06T02:40:52.701Z,1.85
2023-04-06T02:45:00.464Z,1.81
2023-04-06T02:49:08.775Z,1.79
2023-04-06T02:53:13.110Z,1.75
2023-04-06T02:57:16.966Z,1.70
2023-04-06T03:01:23.542Z,1.62
2023-04-06T03:05:33.043Z,1.56
2023-04-06T03:09:39.375Z,1.52
2023-04-06T03:13:42.413Z,1.50
2023-04-06T03:17:48.367Z,1.41
2023-04-06T03:22:07.773Z,1.38
2023-04-06T03:26:11.690Z,1.38
2023-04-06T03:30:15.088Z,1.38
2023-04-06T03:34:19.344Z,1.36
2023-04-06T03:38:23.146Z,1.35
2023-04-06T03:42:26.094Z,1.34
2023-04-06T03:46:33.750Z,1.34
2023-04-06T03:50:38.692Z,1.30
2023-04-06T03:54:42.473Z,1.24
2023-04-06T03:58:50.456Z,1.21
2023-04-06T04:02:53.810Z,1.19
2023-04-06T04:06:58.967Z,1.18
2023-04-06T04:11:01.882Z,1.16
2023-04-06T04:15:06.654Z,1.15
2023-04-06T04:19:10.294Z,1.14
2023-04-06T04:23:14.957Z,1.09
2023-04-06T04:27:18.170Z,1.08
2023-04-06T04:31:23.558Z,1.06
2023-04-06T04:35:32.486Z,1.02
2023-04-06T04:39:37.051Z,1.00
2023-04-06T04:43:43.352Z,0.94
2023-04-06T04:47:48.761Z,0.94
2023-04-06T04:51:54.295Z,0.98
2023-04-06T04:56:31.776Z,0.96
2023-04-06T05:00:45.617Z,0.89
2023-04-06T05:04:48.681Z,0.90
2023-04-06T05:08:57.548Z,0.91
2023-04-06T05:13:02.242Z,0.93
2023-04-06T05:17:05.758Z,0.96
2023-04-06T05:21:09.041Z,0.97
2023-04-06T05:25:27.167Z,0.99
2023-04-06T05:29:35.582Z,0.99
2023-04-06T05:33:39.154Z,0.99
2023-04-06T05:37:46.313Z,1.02
2023-04-06T05:41:50.702Z,1.08
2023-04-06T05:46:05.641Z,1.09
2023-04-06T05:50:10.029Z,1.09
2023-04-06T05:54:16.319Z,1.14
2023-04-06T05:58:20.715Z,1.21
2023-04-06T06:02:28.431Z,1.28
2023-04-06T06:06:32.802Z,1.36
2023-04-06T06:11:01.689Z,1.49
2023-04-06T06:15:05.114Z,1.57
2023-04-06T06:19:13.974Z,1.63
2023-04-06T06:23:17.844Z,1.71
2023-04-06T06:27:21.412Z,1.78
2023-04-06T06:31:25.579Z,1.88
2023-04-06T06:35:30.018Z,2.00
2023-04-06T06:39:33.464Z,2.15
2023-04-06T06:43:36.787Z,2.31
2023-04-06T06:48:02.904Z,2.49
2023-04-06T06:52:36.438Z,2.68
2023-04-06T06:57:23.718Z,2.89
2023-04-06T07:40:17.142Z,6.95
2023-04-06T07:44:51.713Z,7.47
2023-04-06T07:49:10.653Z,8.03
2023-04-06T07:53:54.330Z,8.46
2023-04-06T07:58:25.712Z,9.03
2023-04-06T08:02:34.165Z,9.50
2023-04-06T08:06:37.505Z,9.94
2023-04-06T08:10:40.601Z,10.35
2023-04-06T08:14:43.705Z,10.76
2023-04-06T08:18:48.082Z,11.03
2023-04-06T08:22:53.451Z,11.39
2023-04-06T08:26:56.704Z,11.57
2023-04-06T08:30:59.653Z,11.89
2023-04-06T08:35:04.202Z,12.09
2023-04-06T08:39:07.401Z,12.29
2023-04-06T08:43:14.784Z,12.70
2023-04-06T08:47:18.155Z,12.93
2023-04-06T08:51:24.935Z,13.06
2023-04-06T08:55:27.993Z,13.18
2023-04-06T08:59:31.104Z,13.29
2023-04-06T09:03:36.768Z,13.53
2023-04-06T09:07:41.327Z,13.74
2023-04-06T09:11:48.660Z,13.76
2023-04-06T09:16:01.479Z,14.05
2023-04-06T09:20:05.708Z,14.22
2023-04-06T09:24:11.057Z,14.15
2023-04-06T09:28:14.524Z,14.11
2023-04-06T09:32:18.530Z,13.99
2023-04-06T09:36:21.755Z,13.92
2023-04-06T09:40:26.159Z,13.92
2023-04-06T09:44:29.272Z,13.85
2023-04-06T09:48:35.516Z,13.92
2023-04-06T09:52:42.547Z,13.88
2023-04-06T09:56:49.181Z,14.02
2023-04-06T10:01:10.747Z,14.23
2023-04-06T10:05:21.737Z,14.27
2023-04-06T10:09:30.417Z,14.33
2023-04-06T10:13:35.517Z,14.44
2023-04-06T10:17:38.394Z,14.64
2023-04-06T10:21:45.467Z,14.61
2023-04-06T10:25:55.686Z,14.66
2023-04-06T10:30:05.418Z,14.78
2023-04-06T10:34:09.688Z,15.00
2023-04-06T10:38:15.041Z,15.22
2023-04-06T10:42:18.187Z,15.51
2023-04-06T10:46:27.391Z,16.05
2023-04-06T10:50:31.784Z,15.95
2023-04-06T10:54:35.529Z,16.13
2023-04-06T10:58:39.835Z,16.14
2023-04-06T11:02:44.451Z,16.08
2023-04-06T11:06:49.558Z,16.18
2023-04-06T11:10:52.867Z,16.17
2023-04-06T11:15:03.435Z,16.19
2023-04-06T11:19:08.152Z,16.30
2023-04-06T11:23:11.144Z,16.31
2023-04-06T11:27:16.005Z,16.42
2023-04-06T11:31:19.079Z,16.43
2023-04-06T11:35:25.207Z,16.34
2023-04-06T11:39:29.457Z,16.45
2023-04-06T11:43:33.173Z,16.42
2023-04-06T11:47:38.430Z,16.43
2023-04-06T11:51:42.733Z,16.80
2023-04-06T11:55:47.741Z,16.96
2023-04-06T11:59:50.811Z,17.12
2023-04-06T12:03:54.133Z,17.16
2023-04-06T12:08:01.072Z,17.46
2023-04-06T12:12:06.357Z,17.36
2023-04-06T12:16:09.570Z,17.48
2023-04-06T12:20:22.535Z,17.53
2023-04-06T12:24:31.065Z,17.07
2023-04-06T12:29:05.971Z,16.82
2023-04-06T12:33:33.540Z,16.73
2023-04-06T12:37:37.725Z,16.49
2023-04-06T12:41:47.868Z,16.11
2023-04-06T12:46:05.561Z,15.81
2023-04-06T12:50:24.816Z,15.62
2023-04-06T12:54:29.598Z,15.57
2023-04-06T12:58:41.199Z,15.29
2023-04-06T13:02:55.966Z,14.96
2023-04-06T13:07:09.531Z,14.82
2023-04-06T13:11:25.069Z,14.61
2023-04-06T13:15:35.813Z,14.55
2023-04-06T13:19:40.499Z,14.59
2023-04-06T13:23:43.767Z,14.40
2023-04-06T13:27:49.756Z,14.19
2023-04-06T13:31:54.435Z,14.03
2023-04-06T13:35:58.382Z,14.01
2023-04-06T13:40:01.503Z,13.87
2023-04-06T13:44:05.101Z,13.86
2023-04-06T13:48:10.022Z,13.75
2023-04-06T13:52:12.915Z,13.81
2023-04-06T13:56:15.828Z,13.87
2023-04-06T14:00:19.279Z,13.88
2023-04-06T14:04:23.471Z,13.72
2023-04-06T14:08:26.378Z,13.70
2023-04-06T14:12:29.402Z,13.51
2023-04-06T14:16:32.854Z,13.36
2023-04-06T14:20:37.482Z,13.23
2023-04-06T14:24:42.030Z,13.20
2023-04-06T14:28:45.400Z,13.16
2023-04-06T14:32:48.392Z,13.06
2023-04-06T14:36:53.090Z,13.13
2023-04-06T14:40:56.927Z,13.18
2023-04-06T14:45:01.658Z,13.13
2023-04-06T14:49:04.591Z,12.97
2023-04-06T14:53:09.337Z,12.87
2023-04-06T14:57:12.802Z,12.75
2023-04-06T15:01:16.278Z,12.44
2023-04-06T15:05:19.639Z,12.09
2023-04-06T15:09:24.223Z,11.88
2023-04-06T15:13:27.383Z,11.74
2023-04-06T15:17:30.551Z,11.67
2023-04-06T15:21:33.610Z,11.38
2023-04-06T15:25:41.933Z,11.25
2023-04-06T15:29:45.205Z,11.20
2023-04-06T15:33:48.307Z,11.07
2023-04-06T15:37:54.748Z,10.97
2023-04-06T15:41:59.013Z,10.94
2023-04-06T15:46:03.263Z,10.97
2023-04-06T15:50:08.395Z,10.99
2023-04-06T15:54:11.300Z,10.98
2023-04-06T15:58:15.942Z,10.91
2023-04-06T16:02:20.305Z,10.84
2023-04-06T16:06:25.253Z,10.75
2023-04-06T16:10:28.207Z,10.71
2023-04-06T16:14:32.632Z,10.70
2023-04-06T16:18:39.071Z,10.69
2023-04-06T16:22:41.957Z,10.60
2023-04-06T16:26:46.549Z,10.54
2023-04-06T16:30:50.650Z,10.50
2023-04-06T16:34:53.927Z,10.49
2023-04-06T16:38:58.051Z,10.45
2023-04-06T16:43:01.437Z,10.37
2023-04-06T16:47:07.016Z,10.29
2023-04-06T16:51:11.518Z,10.27
2023-04-06T16:55:14.559Z,10.22
2023-04-06T16:59:17.281Z,10.15
2023-04-06T17:03:21.837Z,10.11
2023-04-06T17:07:26.529Z,10.09
2023-04-06T17:11:43.750Z,10.05
2023-04-06T17:15:53.590Z,9.93
2023-04-06T17:19:59.926Z,9.89
2023-04-06T17:24:03.056Z,9.84
2023-04-06T17:28:06.531Z,9.82
2023-04-06T17:32:09.608Z,9.75
2023-04-06T17:36:30.424Z,9.63
2023-04-06T17:40:52.057Z,9.53
2023-04-06T17:44:55.174Z,9.46
2023-04-06T17:48:58.428Z,9.39
2023-04-06T17:53:03.361Z,9.31
2023-04-06T17:57:07.704Z,9.29
2023-04-06T18:01:11.793Z,9.22
2023-04-06T18:05:14.689Z,9.09
2023-04-06T18:09:19.040Z,9.08
2023-04-06T18:13:22.600Z,9.08
2023-04-06T18:17:27.744Z,9.03
2023-04-06T18:21:31.620Z,8.87
2023-04-06T18:25:39.911Z,8.80
2023-04-06T18:29:45.374Z,8.68
2023-04-06T18:33:48.572Z,8.60
2023-04-06T18:37:51.548Z,8.51
2023-04-06T18:41:55.971Z,8.46
2023-04-06T18:46:00.544Z,8.42
2023-04-06T18:50:04.272Z,8.39
2023-04-06T18:54:08.846Z,8.39
2023-04-06T18:58:14.623Z,8.36
2023-04-06T19:02:17.545Z,8.30
2023-04-06T19:06:21.613Z,8.22
2023-04-06T19:10:25.636Z,8.09
2023-04-06T19:14:33.788Z,8.07
2023-04-06T19:18:38.177Z,8.07
2023-04-06T19:22:41.735Z,8.04
2023-04-06T19:26:53.841Z,8.01
2023-04-06T19:31:19.359Z,8.01
2023-04-06T19:35:24.157Z,7.98
2023-04-06T19:39:27.617Z,7.93
2023-04-06T19:43:36.395Z,7.96
2023-04-06T19:47:40.859Z,7.89
2023-04-06T19:51:43.900Z,7.92
2023-04-06T19:55:46.919Z,7.89
2023-04-06T19:59:49.701Z,7.90
2023-04-06T20:03:54.082Z,7.89
2023-04-06T20:07:57.689Z,7.90
2023-04-06T20:12:00.725Z,7.83
2023-04-06T20:16:03.974Z,7.82
2023-04-06T20:20:09.410Z,7.80
2023-04-06T20:24:12.510Z,7.79
2023-04-06T20:28:15.485Z,7.82
2023-04-06T20:32:20.751Z,7.82
2023-04-06T20:36:25.266Z,7.82
2023-04-06T20:40:28.353Z,7.79
2023-04-06T20:44:32.182Z,7.77
2023-04-06T20:48:36.148Z,7.78
2023-04-06T20:52:40.373Z,7.77
2023-04-06T20:56:43.534Z,7.80
2023-04-06T21:00:46.283Z,7.85
2023-04-06T21:04:49.181Z,7.85
2023-04-06T21:08:59.334Z,7.80
2023-04-06T21:13:11.137Z,7.86
2023-04-06T21:17:16.221Z,7.85
2023-04-06T21:21:18.976Z,7.86
2023-04-06T21:25:24.219Z,7.83
2023-04-06T21:29:27.783Z,7.83
2023-04-06T21:33:31.582Z,7.85
2023-04-06T21:37:34.663Z,7.86
2023-04-06T21:41:40.360Z,7.86
2023-04-06T21:45:50.065Z,7.89
2023-04-06T21:49:52.838Z,7.83
2023-04-06T21:53:56.419Z,7.80
2023-04-06T21:58:00.919Z,7.80
2023-04-06T22:02:03.767Z,7.77
2023-04-06T22:06:08.053Z,7.79
2023-04-06T22:10:11.551Z,7.76
2023-04-06T22:14:18.538Z,7.72
2023-04-06T22:18:23.350Z,7.79
2023-04-06T22:22:26.411Z,7.81
2023-04-06T22:26:29.367Z,7.79
2023-04-06T22:30:33.967Z,7.80
2023-04-06T22:34:36.834Z,7.83
2023-04-06T22:38:41.457Z,7.82
2023-04-06T22:42:44.544Z,7.83
2023-04-06T22:46:48.777Z,7.79
2023-04-06T22:50:51.575Z,7.78
2023-04-06T22:54:54.627Z,7.78
2023-04-06T22:58:57.366Z,7.77
2023-04-06T23:03:01.805Z,7.82
2023-04-06T23:07:35.620Z,7.85
2023-04-06T23:11:38.499Z,7.89
2023-04-06T23:15:59.665Z,7.89
2023-04-06T23:20:03.830Z,7.93
2023-04-06T23:24:07.953Z,7.93
2023-04-06T23:28:12.970Z,7.94
2023-04-06T23:32:16.186Z,7.92
2023-04-06T23:36:20.689Z,7.93
2023-04-06T23:40:24.933Z,7.98
2023-04-06T23:44:30.781Z,8.00
2023-04-06T23:48:33.516Z,7.99
2023-04-06T23:52:37.766Z,8.02
2023-04-06T23:56:41.699Z,7.98
